sensor_id;sensor_type;location;lat;lon;timestamp;P1;durP1;ratioP1;P2;durP2;ratioP2
4957;SDS011;2494;51.872;9.688;2024-01-10T00:01:06;13.30;;;8.90;;
4957;SDS011;2494;51.872;9.688;2024-01-10T00:03:51;18.52;;;7.10;;
4957;SDS011;2494;51.872;9.688;2024-01-10T00:06:38;17.47;;;8.07;;
4957;SDS011;2494;51.872;9.688;2024-01-10T00:09:23;15.90;;;8.70;;
4957;SDS011;2494;51.872;9.688;2024-01-10T00:12:07;21.77;;;10.20;;
4957;SDS011;2494;51.872;9.688;2024-01-10T00:14:53;15.60;;;10.07;;
4957;SDS011;2494;51.872;9.688;2024-01-10T00:17:38;18.73;;;9.93;;
4957;SDS011;2494;51.872;9.688;2024-01-10T00:20:24;13.55;;;7.20;;
4957;SDS011;2494;51.872;9.688;2024-01-10T00:23:10;12.13;;;6.87;;
4957;SDS011;2494;51.872;9.688;2024-01-10T00:25:55;12.40;;;8.00;;
4957;SDS011;2494;51.872;9.688;2024-01-10T00:28:40;10.53;;;7.20;;
4957;SDS011;2494;51.872;9.688;2024-01-10T00:31:25;12.27;;;7.20;;
4957;SDS011;2494;51.872;9.688;2024-01-10T00:34:10;15.55;;;7.63;;
4957;SDS011;2494;51.872;9.688;2024-01-10T00:36:55;13.00;;;8.30;;
4957;SDS011;2494;51.872;9.688;2024-01-10T00:39:42;14.70;;;8.90;;
4957;SDS011;2494;51.872;9.688;2024-01-10T00:42:27;11.07;;;8.52;;
4957;SDS011;2494;51.872;9.688;2024-01-10T00:45:12;11.67;;;6.90;;
4957;SDS011;2494;51.872;9.688;2024-01-10T00:47:58;7.97;;;5.97;;
4957;SDS011;2494;51.872;9.688;2024-01-10T00:50:43;10.45;;;6.68;;
4957;SDS011;2494;51.872;9.688;2024-01-10T00:53:29;13.55;;;7.63;;
4957;SDS011;2494;51.872;9.688;2024-01-10T00:56:15;11.93;;;8.00;;
4957;SDS011;2494;51.872;9.688;2024-01-10T00:59:01;13.27;;;7.47;;
4957;SDS011;2494;51.872;9.688;2024-01-10T01:01:46;13.80;;;5.60;;
4957;SDS011;2494;51.872;9.688;2024-01-10T01:04:32;11.30;;;7.90;;
4957;SDS011;2494;51.872;9.688;2024-01-10T01:07:17;13.48;;;7.13;;
4957;SDS011;2494;51.872;9.688;2024-01-10T01:10:02;9.60;;;5.75;;
4957;SDS011;2494;51.872;9.688;2024-01-10T01:12:49;12.57;;;6.27;;
4957;SDS011;2494;51.872;9.688;2024-01-10T01:15:35;8.30;;;6.17;;
4957;SDS011;2494;51.872;9.688;2024-01-10T01:18:20;12.13;;;7.90;;
4957;SDS011;2494;51.872;9.688;2024-01-10T01:21:05;9.68;;;5.40;;
4957;SDS011;2494;51.872;9.688;2024-01-10T01:23:50;11.50;;;6.30;;
4957;SDS011;2494;51.872;9.688;2024-01-10T01:26:35;10.10;;;6.85;;
4957;SDS011;2494;51.872;9.688;2024-01-10T01:29:22;10.80;;;5.40;;
4957;SDS011;2494;51.872;9.688;2024-01-10T01:32:07;11.38;;;6.50;;
4957;SDS011;2494;51.872;9.688;2024-01-10T01:34:52;13.23;;;8.10;;
4957;SDS011;2494;51.872;9.688;2024-01-10T01:37:38;12.60;;;7.72;;
4957;SDS011;2494;51.872;9.688;2024-01-10T01:40:23;11.10;;;6.60;;
4957;SDS011;2494;51.872;9.688;2024-01-10T01:43:18;8.90;;;5.50;;
4957;SDS011;2494;51.872;9.688;2024-01-10T01:46:04;10.40;;;7.93;;
4957;SDS011;2494;51.872;9.688;2024-01-10T01:48:50;16.20;;;8.38;;
4957;SDS011;2494;51.872;9.688;2024-01-10T01:51:36;12.23;;;6.93;;
4957;SDS011;2494;51.872;9.688;2024-01-10T01:54:22;15.63;;;8.13;;
4957;SDS011;2494;51.872;9.688;2024-01-10T01:57:07;12.10;;;6.57;;
4957;SDS011;2494;51.872;9.688;2024-01-10T01:59:53;15.20;;;7.95;;
4957;SDS011;2494;51.872;9.688;2024-01-10T02:02:39;13.77;;;7.90;;
4957;SDS011;2494;51.872;9.688;2024-01-10T02:05:24;12.23;;;8.00;;
4957;SDS011;2494;51.872;9.688;2024-01-10T02:08:10;16.48;;;7.60;;
4957;SDS011;2494;51.872;9.688;2024-01-10T02:10:55;11.25;;;9.35;;
4957;SDS011;2494;51.872;9.688;2024-01-10T02:13:40;18.00;;;8.32;;
4957;SDS011;2494;51.872;9.688;2024-01-10T02:16:26;10.48;;;7.38;;
4957;SDS011;2494;51.872;9.688;2024-01-10T02:19:19;13.20;;;6.87;;
4957;SDS011;2494;51.872;9.688;2024-01-10T02:22:04;16.30;;;7.70;;
4957;SDS011;2494;51.872;9.688;2024-01-10T02:24:52;13.25;;;7.47;;
4957;SDS011;2494;51.872;9.688;2024-01-10T02:27:38;18.70;;;6.88;;
4957;SDS011;2494;51.872;9.688;2024-01-10T02:30:23;13.17;;;6.80;;
4957;SDS011;2494;51.872;9.688;2024-01-10T02:33:09;19.15;;;8.35;;
4957;SDS011;2494;51.872;9.688;2024-01-10T02:35:54;10.75;;;7.00;;
4957;SDS011;2494;51.872;9.688;2024-01-10T02:38:39;14.65;;;7.40;;
4957;SDS011;2494;51.872;9.688;2024-01-10T02:41:25;15.18;;;6.80;;
4957;SDS011;2494;51.872;9.688;2024-01-10T02:44:11;13.40;;;8.63;;
4957;SDS011;2494;51.872;9.688;2024-01-10T02:46:56;16.65;;;10.32;;
4957;SDS011;2494;51.872;9.688;2024-01-10T02:49:41;21.52;;;9.02;;
4957;SDS011;2494;51.872;9.688;2024-01-10T02:52:26;12.77;;;8.57;;
4957;SDS011;2494;51.872;9.688;2024-01-10T02:55:12;20.05;;;9.48;;
4957;SDS011;2494;51.872;9.688;2024-01-10T02:57:58;13.73;;;9.30;;
4957;SDS011;2494;51.872;9.688;2024-01-10T03:00:44;12.73;;;7.55;;
4957;SDS011;2494;51.872;9.688;2024-01-10T03:03:29;14.57;;;9.23;;
4957;SDS011;2494;51.872;9.688;2024-01-10T03:06:14;18.30;;;9.47;;
4957;SDS011;2494;51.872;9.688;2024-01-10T03:08:59;18.00;;;10.07;;
4957;SDS011;2494;51.872;9.688;2024-01-10T03:11:44;18.40;;;9.20;;
4957;SDS011;2494;51.872;9.688;2024-01-10T03:14:30;24.27;;;10.30;;
4957;SDS011;2494;51.872;9.688;2024-01-10T03:17:15;25.85;;;11.40;;
4957;SDS011;2494;51.872;9.688;2024-01-10T03:20:00;17.07;;;10.00;;
4957;SDS011;2494;51.872;9.688;2024-01-10T03:22:46;22.40;;;10.80;;
4957;SDS011;2494;51.872;9.688;2024-01-10T03:25:31;16.30;;;9.23;;
4957;SDS011;2494;51.872;9.688;2024-01-10T03:28:16;25.88;;;12.05;;
4957;SDS011;2494;51.872;9.688;2024-01-10T03:31:03;22.63;;;11.18;;
4957;SDS011;2494;51.872;9.688;2024-01-10T03:33:48;17.40;;;10.03;;
4957;SDS011;2494;51.872;9.688;2024-01-10T03:36:34;17.88;;;9.68;;
4957;SDS011;2494;51.872;9.688;2024-01-10T03:39:19;18.17;;;9.20;;
4957;SDS011;2494;51.872;9.688;2024-01-10T03:42:05;17.58;;;10.05;;
4957;SDS011;2494;51.872;9.688;2024-01-10T03:44:50;15.98;;;10.55;;
4957;SDS011;2494;51.872;9.688;2024-01-10T03:47:37;16.67;;;9.25;;
4957;SDS011;2494;51.872;9.688;2024-01-10T03:50:22;28.85;;;13.70;;
4957;SDS011;2494;51.872;9.688;2024-01-10T03:53:07;22.52;;;11.68;;
4957;SDS011;2494;51.872;9.688;2024-01-10T03:55:52;15.73;;;8.20;;
4957;SDS011;2494;51.872;9.688;2024-01-10T03:58:37;19.38;;;8.82;;
4957;SDS011;2494;51.872;9.688;2024-01-10T04:01:23;22.52;;;10.02;;
4957;SDS011;2494;51.872;9.688;2024-01-10T04:04:09;23.30;;;11.43;;
4957;SDS011;2494;51.872;9.688;2024-01-10T04:06:54;14.77;;;9.63;;
4957;SDS011;2494;51.872;9.688;2024-01-10T04:09:40;14.70;;;10.00;;
4957;SDS011;2494;51.872;9.688;2024-01-10T04:12:25;31.08;;;9.85;;
4957;SDS011;2494;51.872;9.688;2024-01-10T04:15:11;31.67;;;11.70;;
4957;SDS011;2494;51.872;9.688;2024-01-10T04:17:56;21.58;;;13.43;;
4957;SDS011;2494;51.872;9.688;2024-01-10T04:20:43;27.20;;;11.17;;
4957;SDS011;2494;51.872;9.688;2024-01-10T04:23:28;21.57;;;11.87;;
4957;SDS011;2494;51.872;9.688;2024-01-10T04:26:14;16.23;;;9.43;;
4957;SDS011;2494;51.872;9.688;2024-01-10T04:29:00;20.50;;;10.33;;
4957;SDS011;2494;51.872;9.688;2024-01-10T04:31:48;11.60;;;8.10;;
4957;SDS011;2494;51.872;9.688;2024-01-10T04:34:33;20.92;;;9.32;;
4957;SDS011;2494;51.872;9.688;2024-01-10T04:37:20;15.73;;;10.30;;
4957;SDS011;2494;51.872;9.688;2024-01-10T04:40:05;20.13;;;12.13;;
4957;SDS011;2494;51.872;9.688;2024-01-10T04:42:51;20.83;;;10.90;;
4957;SDS011;2494;51.872;9.688;2024-01-10T04:45:36;21.57;;;10.00;;
4957;SDS011;2494;51.872;9.688;2024-01-10T04:48:22;12.87;;;8.73;;
4957;SDS011;2494;51.872;9.688;2024-01-10T04:51:07;20.67;;;11.83;;
4957;SDS011;2494;51.872;9.688;2024-01-10T04:53:54;13.20;;;9.40;;
4957;SDS011;2494;51.872;9.688;2024-01-10T04:56:39;21.50;;;11.77;;
4957;SDS011;2494;51.872;9.688;2024-01-10T04:59:25;17.40;;;9.35;;
4957;SDS011;2494;51.872;9.688;2024-01-10T05:02:09;15.27;;;9.47;;
4957;SDS011;2494;51.872;9.688;2024-01-10T05:04:55;27.07;;;10.60;;
4957;SDS011;2494;51.872;9.688;2024-01-10T05:07:42;20.63;;;11.27;;
4957;SDS011;2494;51.872;9.688;2024-01-10T05:10:28;20.37;;;11.57;;
4957;SDS011;2494;51.872;9.688;2024-01-10T05:13:13;23.13;;;10.63;;
4957;SDS011;2494;51.872;9.688;2024-01-10T05:16:01;21.70;;;11.23;;
4957;SDS011;2494;51.872;9.688;2024-01-10T05:18:46;15.57;;;8.67;;
4957;SDS011;2494;51.872;9.688;2024-01-10T05:21:32;27.63;;;12.93;;
4957;SDS011;2494;51.872;9.688;2024-01-10T05:24:18;16.00;;;9.25;;
4957;SDS011;2494;51.872;9.688;2024-01-10T05:27:17;25.10;;;12.00;;
4957;SDS011;2494;51.872;9.688;2024-01-10T05:30:02;26.70;;;13.63;;
4957;SDS011;2494;51.872;9.688;2024-01-10T05:32:47;29.33;;;16.60;;
4957;SDS011;2494;51.872;9.688;2024-01-10T05:35:32;32.97;;;16.58;;
4957;SDS011;2494;51.872;9.688;2024-01-10T05:38:19;19.63;;;10.82;;
4957;SDS011;2494;51.872;9.688;2024-01-10T05:41:05;25.88;;;12.63;;
4957;SDS011;2494;51.872;9.688;2024-01-10T05:43:51;16.20;;;10.27;;
4957;SDS011;2494;51.872;9.688;2024-01-10T05:46:36;26.75;;;14.27;;
4957;SDS011;2494;51.872;9.688;2024-01-10T05:49:22;15.48;;;10.85;;
4957;SDS011;2494;51.872;9.688;2024-01-10T05:52:07;22.53;;;12.10;;
4957;SDS011;2494;51.872;9.688;2024-01-10T05:54:52;19.60;;;12.53;;
4957;SDS011;2494;51.872;9.688;2024-01-10T05:57:38;218.82;;;81.63;;
4957;SDS011;2494;51.872;9.688;2024-01-10T06:00:24;120.57;;;45.20;;
4957;SDS011;2494;51.872;9.688;2024-01-10T06:03:09;58.70;;;28.00;;
4957;SDS011;2494;51.872;9.688;2024-01-10T06:05:54;39.75;;;17.45;;
4957;SDS011;2494;51.872;9.688;2024-01-10T06:08:40;32.47;;;14.35;;
4957;SDS011;2494;51.872;9.688;2024-01-10T06:11:25;25.95;;;12.35;;
4957;SDS011;2494;51.872;9.688;2024-01-10T06:14:11;18.42;;;10.70;;
4957;SDS011;2494;51.872;9.688;2024-01-10T06:16:59;21.05;;;11.00;;
4957;SDS011;2494;51.872;9.688;2024-01-10T06:19:45;20.98;;;11.48;;
4957;SDS011;2494;51.872;9.688;2024-01-10T06:22:31;16.67;;;9.60;;
4957;SDS011;2494;51.872;9.688;2024-01-10T06:25:16;23.30;;;12.90;;
4957;SDS011;2494;51.872;9.688;2024-01-10T06:28:02;26.33;;;13.77;;
4957;SDS011;2494;51.872;9.688;2024-01-10T06:30:48;26.90;;;12.43;;
4957;SDS011;2494;51.872;9.688;2024-01-10T06:33:34;23.07;;;12.60;;
4957;SDS011;2494;51.872;9.688;2024-01-10T06:36:22;22.42;;;13.02;;
4957;SDS011;2494;51.872;9.688;2024-01-10T06:39:09;23.50;;;11.90;;
4957;SDS011;2494;51.872;9.688;2024-01-10T06:41:57;32.67;;;16.33;;
4957;SDS011;2494;51.872;9.688;2024-01-10T06:44:43;37.13;;;16.10;;
4957;SDS011;2494;51.872;9.688;2024-01-10T06:47:27;39.28;;;15.32;;
4957;SDS011;2494;51.872;9.688;2024-01-10T06:50:14;27.23;;;13.70;;
4957;SDS011;2494;51.872;9.688;2024-01-10T06:53:00;30.30;;;13.23;;
4957;SDS011;2494;51.872;9.688;2024-01-10T06:55:46;27.20;;;13.77;;
4957;SDS011;2494;51.872;9.688;2024-01-10T06:58:32;22.60;;;11.80;;
4957;SDS011;2494;51.872;9.688;2024-01-10T07:01:20;23.75;;;12.27;;
4957;SDS011;2494;51.872;9.688;2024-01-10T07:04:06;25.05;;;12.07;;
4957;SDS011;2494;51.872;9.688;2024-01-10T07:06:52;18.77;;;11.27;;
4957;SDS011;2494;51.872;9.688;2024-01-10T07:09:37;19.80;;;11.13;;
4957;SDS011;2494;51.872;9.688;2024-01-10T07:12:24;21.15;;;10.88;;
4957;SDS011;2494;51.872;9.688;2024-01-10T07:15:10;21.63;;;12.55;;
4957;SDS011;2494;51.872;9.688;2024-01-10T07:17:55;28.10;;;15.23;;
4957;SDS011;2494;51.872;9.688;2024-01-10T07:20:40;27.75;;;13.82;;
4957;SDS011;2494;51.872;9.688;2024-01-10T07:23:27;24.47;;;14.00;;
4957;SDS011;2494;51.872;9.688;2024-01-10T07:26:13;23.87;;;12.40;;
4957;SDS011;2494;51.872;9.688;2024-01-10T07:29:00;23.77;;;13.57;;
4957;SDS011;2494;51.872;9.688;2024-01-10T07:31:46;18.25;;;10.57;;
4957;SDS011;2494;51.872;9.688;2024-01-10T07:34:31;19.57;;;10.93;;
4957;SDS011;2494;51.872;9.688;2024-01-10T07:37:17;28.63;;;14.50;;
4957;SDS011;2494;51.872;9.688;2024-01-10T07:40:06;19.45;;;10.27;;
4957;SDS011;2494;51.872;9.688;2024-01-10T07:42:52;18.17;;;10.43;;
4957;SDS011;2494;51.872;9.688;2024-01-10T07:45:41;21.60;;;14.63;;
4957;SDS011;2494;51.872;9.688;2024-01-10T07:48:27;23.07;;;13.23;;
4957;SDS011;2494;51.872;9.688;2024-01-10T07:51:14;34.15;;;14.60;;
4957;SDS011;2494;51.872;9.688;2024-01-10T07:53:59;20.37;;;12.40;;
4957;SDS011;2494;51.872;9.688;2024-01-10T07:56:46;18.97;;;13.37;;
4957;SDS011;2494;51.872;9.688;2024-01-10T07:59:32;31.33;;;16.17;;
4957;SDS011;2494;51.872;9.688;2024-01-10T08:02:18;25.15;;;13.73;;
4957;SDS011;2494;51.872;9.688;2024-01-10T08:05:03;12.30;;;9.10;;
4957;SDS011;2494;51.872;9.688;2024-01-10T08:07:52;14.60;;;8.07;;
4957;SDS011;2494;51.872;9.688;2024-01-10T08:10:38;18.83;;;9.33;;
4957;SDS011;2494;51.872;9.688;2024-01-10T08:13:25;27.20;;;9.20;;
4957;SDS011;2494;51.872;9.688;2024-01-10T08:16:10;17.70;;;9.93;;
4957;SDS011;2494;51.872;9.688;2024-01-10T08:18:55;18.80;;;11.83;;
4957;SDS011;2494;51.872;9.688;2024-01-10T08:21:42;45.53;;;23.70;;
4957;SDS011;2494;51.872;9.688;2024-01-10T08:24:28;73.77;;;28.83;;
4957;SDS011;2494;51.872;9.688;2024-01-10T08:27:13;34.25;;;14.82;;
4957;SDS011;2494;51.872;9.688;2024-01-10T08:30:02;20.97;;;11.63;;
4957;SDS011;2494;51.872;9.688;2024-01-10T08:32:49;26.73;;;11.43;;
4957;SDS011;2494;51.872;9.688;2024-01-10T08:35:34;15.20;;;9.50;;
4957;SDS011;2494;51.872;9.688;2024-01-10T08:38:19;26.43;;;8.47;;
4957;SDS011;2494;51.872;9.688;2024-01-10T08:41:04;21.80;;;10.10;;
4957;SDS011;2494;51.872;9.688;2024-01-10T08:43:49;22.17;;;10.50;;
4957;SDS011;2494;51.872;9.688;2024-01-10T08:46:36;18.17;;;9.67;;
4957;SDS011;2494;51.872;9.688;2024-01-10T08:49:21;24.43;;;12.60;;
4957;SDS011;2494;51.872;9.688;2024-01-10T08:52:06;41.67;;;13.73;;
4957;SDS011;2494;51.872;9.688;2024-01-10T08:54:52;25.87;;;10.27;;
4957;SDS011;2494;51.872;9.688;2024-01-10T08:57:37;20.23;;;10.77;;
4957;SDS011;2494;51.872;9.688;2024-01-10T09:00:22;16.97;;;9.50;;
4957;SDS011;2494;51.872;9.688;2024-01-10T09:03:11;19.27;;;9.97;;
4957;SDS011;2494;51.872;9.688;2024-01-10T09:05:57;17.27;;;9.77;;
4957;SDS011;2494;51.872;9.688;2024-01-10T09:08:42;29.30;;;13.80;;
4957;SDS011;2494;51.872;9.688;2024-01-10T09:11:28;20.17;;;9.80;;
4957;SDS011;2494;51.872;9.688;2024-01-10T09:14:19;28.13;;;13.90;;
4957;SDS011;2494;51.872;9.688;2024-01-10T09:17:05;36.73;;;17.03;;
4957;SDS011;2494;51.872;9.688;2024-01-10T09:19:52;35.20;;;14.97;;
4957;SDS011;2494;51.872;9.688;2024-01-10T09:22:37;26.67;;;12.30;;
4957;SDS011;2494;51.872;9.688;2024-01-10T09:25:23;25.43;;;12.60;;
4957;SDS011;2494;51.872;9.688;2024-01-10T09:28:09;28.60;;;16.77;;
4957;SDS011;2494;51.872;9.688;2024-01-10T09:30:55;28.50;;;13.73;;
4957;SDS011;2494;51.872;9.688;2024-01-10T09:33:40;37.00;;;13.57;;
4957;SDS011;2494;51.872;9.688;2024-01-10T09:36:28;30.50;;;14.07;;
4957;SDS011;2494;51.872;9.688;2024-01-10T09:39:13;22.00;;;11.73;;
4957;SDS011;2494;51.872;9.688;2024-01-10T09:42:01;25.80;;;14.40;;
4957;SDS011;2494;51.872;9.688;2024-01-10T09:44:47;31.23;;;15.40;;
4957;SDS011;2494;51.872;9.688;2024-01-10T09:47:33;25.90;;;13.50;;
4957;SDS011;2494;51.872;9.688;2024-01-10T09:50:19;19.37;;;12.67;;
4957;SDS011;2494;51.872;9.688;2024-01-10T09:53:06;28.67;;;14.30;;
4957;SDS011;2494;51.872;9.688;2024-01-10T09:55:52;34.23;;;13.67;;
4957;SDS011;2494;51.872;9.688;2024-01-10T09:58:41;29.13;;;13.93;;
4957;SDS011;2494;51.872;9.688;2024-01-10T10:01:27;38.47;;;17.23;;
4957;SDS011;2494;51.872;9.688;2024-01-10T10:04:13;23.37;;;13.60;;
4957;SDS011;2494;51.872;9.688;2024-01-10T10:07:01;30.60;;;14.27;;
4957;SDS011;2494;51.872;9.688;2024-01-10T10:09:47;29.77;;;14.63;;
4957;SDS011;2494;51.872;9.688;2024-01-10T10:12:42;30.77;;;14.70;;
4957;SDS011;2494;51.872;9.688;2024-01-10T10:15:28;25.47;;;13.27;;
4957;SDS011;2494;51.872;9.688;2024-01-10T10:18:13;23.57;;;11.93;;
4957;SDS011;2494;51.872;9.688;2024-01-10T10:21:08;37.53;;;16.40;;
4957;SDS011;2494;51.872;9.688;2024-01-10T10:23:58;36.57;;;16.70;;
4957;SDS011;2494;51.872;9.688;2024-01-10T10:26:45;31.37;;;13.40;;
4957;SDS011;2494;51.872;9.688;2024-01-10T10:29:31;22.17;;;9.37;;
4957;SDS011;2494;51.872;9.688;2024-01-10T10:32:16;28.97;;;12.00;;
4957;SDS011;2494;51.872;9.688;2024-01-10T10:35:03;30.97;;;13.77;;
4957;SDS011;2494;51.872;9.688;2024-01-10T10:37:50;23.80;;;11.03;;
4957;SDS011;2494;51.872;9.688;2024-01-10T10:40:36;20.13;;;10.37;;
4957;SDS011;2494;51.872;9.688;2024-01-10T10:43:23;22.30;;;13.10;;
4957;SDS011;2494;51.872;9.688;2024-01-10T10:46:09;20.43;;;12.37;;
4957;SDS011;2494;51.872;9.688;2024-01-10T10:48:57;29.00;;;12.23;;
4957;SDS011;2494;51.872;9.688;2024-01-10T10:51:48;16.13;;;8.23;;
4957;SDS011;2494;51.872;9.688;2024-01-10T10:54:33;24.80;;;12.63;;
4957;SDS011;2494;51.872;9.688;2024-01-10T10:57:19;21.83;;;13.30;;
4957;SDS011;2494;51.872;9.688;2024-01-10T11:00:07;15.77;;;10.00;;
4957;SDS011;2494;51.872;9.688;2024-01-10T11:02:54;32.67;;;13.67;;
4957;SDS011;2494;51.872;9.688;2024-01-10T11:05:40;20.57;;;12.20;;
4957;SDS011;2494;51.872;9.688;2024-01-10T11:08:26;20.47;;;12.13;;
4957;SDS011;2494;51.872;9.688;2024-01-10T11:11:14;22.70;;;13.17;;
4957;SDS011;2494;51.872;9.688;2024-01-10T11:14:08;22.27;;;13.80;;
4957;SDS011;2494;51.872;9.688;2024-01-10T11:17:04;27.63;;;14.73;;
4957;SDS011;2494;51.872;9.688;2024-01-10T11:20:09;33.10;;;14.30;;
4957;SDS011;2494;51.872;9.688;2024-01-10T11:23:06;19.73;;;11.10;;
4957;SDS011;2494;51.872;9.688;2024-01-10T11:25:59;23.63;;;10.00;;
4957;SDS011;2494;51.872;9.688;2024-01-10T11:28:44;25.10;;;14.63;;
4957;SDS011;2494;51.872;9.688;2024-01-10T11:31:30;29.17;;;13.33;;
4957;SDS011;2494;51.872;9.688;2024-01-10T11:34:22;28.23;;;13.90;;
4957;SDS011;2494;51.872;9.688;2024-01-10T11:37:09;28.60;;;14.60;;
4957;SDS011;2494;51.872;9.688;2024-01-10T11:39:54;24.20;;;14.17;;
4957;SDS011;2494;51.872;9.688;2024-01-10T11:42:43;36.43;;;16.30;;
4957;SDS011;2494;51.872;9.688;2024-01-10T11:45:39;24.63;;;13.50;;
4957;SDS011;2494;51.872;9.688;2024-01-10T11:48:35;27.23;;;13.80;;
4957;SDS011;2494;51.872;9.688;2024-01-10T11:51:24;28.37;;;14.23;;
4957;SDS011;2494;51.872;9.688;2024-01-10T11:54:09;34.53;;;16.40;;
4957;SDS011;2494;51.872;9.688;2024-01-10T11:56:55;29.47;;;16.60;;
4957;SDS011;2494;51.872;9.688;2024-01-10T11:59:40;35.03;;;14.60;;
4957;SDS011;2494;51.872;9.688;2024-01-10T12:02:26;31.57;;;16.13;;
4957;SDS011;2494;51.872;9.688;2024-01-10T12:05:12;27.10;;;15.97;;
4957;SDS011;2494;51.872;9.688;2024-01-10T12:07:59;30.70;;;17.43;;
4957;SDS011;2494;51.872;9.688;2024-01-10T12:10:44;30.20;;;16.33;;
4957;SDS011;2494;51.872;9.688;2024-01-10T12:13:29;33.73;;;17.90;;
4957;SDS011;2494;51.872;9.688;2024-01-10T12:16:15;31.30;;;15.67;;
4957;SDS011;2494;51.872;9.688;2024-01-10T12:19:01;37.40;;;17.97;;
4957;SDS011;2494;51.872;9.688;2024-01-10T12:21:48;42.73;;;19.63;;
4957;SDS011;2494;51.872;9.688;2024-01-10T12:24:35;42.33;;;18.50;;
4957;SDS011;2494;51.872;9.688;2024-01-10T12:27:24;30.30;;;16.37;;
4957;SDS011;2494;51.872;9.688;2024-01-10T12:30:09;33.93;;;19.23;;
4957;SDS011;2494;51.872;9.688;2024-01-10T12:32:54;29.63;;;16.63;;
4957;SDS011;2494;51.872;9.688;2024-01-10T12:35:40;29.57;;;16.17;;
4957;SDS011;2494;51.872;9.688;2024-01-10T12:38:27;21.60;;;14.60;;
4957;SDS011;2494;51.872;9.688;2024-01-10T12:41:15;36.37;;;16.80;;
4957;SDS011;2494;51.872;9.688;2024-01-10T12:44:01;36.00;;;18.17;;
4957;SDS011;2494;51.872;9.688;2024-01-10T12:46:51;29.80;;;15.37;;
4957;SDS011;2494;51.872;9.688;2024-01-10T12:49:39;31.87;;;18.70;;
4957;SDS011;2494;51.872;9.688;2024-01-10T12:52:24;26.77;;;14.27;;
4957;SDS011;2494;51.872;9.688;2024-01-10T12:55:10;31.77;;;16.53;;
4957;SDS011;2494;51.872;9.688;2024-01-10T12:57:56;29.00;;;19.17;;
4957;SDS011;2494;51.872;9.688;2024-01-10T13:00:44;31.40;;;16.57;;
4957;SDS011;2494;51.872;9.688;2024-01-10T13:03:30;30.10;;;15.73;;
4957;SDS011;2494;51.872;9.688;2024-01-10T13:06:18;33.17;;;19.73;;
4957;SDS011;2494;51.872;9.688;2024-01-10T13:09:06;37.73;;;18.93;;
4957;SDS011;2494;51.872;9.688;2024-01-10T13:11:51;30.73;;;15.53;;
4957;SDS011;2494;51.872;9.688;2024-01-10T13:14:38;29.77;;;16.37;;
4957;SDS011;2494;51.872;9.688;2024-01-10T13:17:23;33.43;;;16.03;;
4957;SDS011;2494;51.872;9.688;2024-01-10T13:20:09;29.53;;;15.70;;
4957;SDS011;2494;51.872;9.688;2024-01-10T13:22:55;33.40;;;17.57;;
4957;SDS011;2494;51.872;9.688;2024-01-10T13:25:41;30.43;;;16.83;;
4957;SDS011;2494;51.872;9.688;2024-01-10T13:28:26;30.70;;;19.47;;
4957;SDS011;2494;51.872;9.688;2024-01-10T13:31:14;31.67;;;17.57;;
4957;SDS011;2494;51.872;9.688;2024-01-10T13:34:00;46.97;;;20.40;;
4957;SDS011;2494;51.872;9.688;2024-01-10T13:36:47;52.97;;;22.67;;
4957;SDS011;2494;51.872;9.688;2024-01-10T13:39:33;49.00;;;20.47;;
4957;SDS011;2494;51.872;9.688;2024-01-10T13:42:19;48.17;;;19.77;;
4957;SDS011;2494;51.872;9.688;2024-01-10T13:45:04;31.00;;;16.27;;
4957;SDS011;2494;51.872;9.688;2024-01-10T13:47:52;36.83;;;18.47;;
4957;SDS011;2494;51.872;9.688;2024-01-10T13:50:38;42.10;;;22.23;;
4957;SDS011;2494;51.872;9.688;2024-01-10T13:53:24;47.80;;;21.03;;
4957;SDS011;2494;51.872;9.688;2024-01-10T13:56:09;47.13;;;23.23;;
4957;SDS011;2494;51.872;9.688;2024-01-10T13:58:56;50.13;;;20.10;;
4957;SDS011;2494;51.872;9.688;2024-01-10T14:01:42;29.63;;;17.37;;
4957;SDS011;2494;51.872;9.688;2024-01-10T14:04:30;37.30;;;19.30;;
4957;SDS011;2494;51.872;9.688;2024-01-10T14:07:15;36.33;;;18.43;;
4957;SDS011;2494;51.872;9.688;2024-01-10T14:10:00;40.17;;;18.20;;
4957;SDS011;2494;51.872;9.688;2024-01-10T14:12:46;39.87;;;18.53;;
4957;SDS011;2494;51.872;9.688;2024-01-10T14:15:31;36.07;;;17.33;;
4957;SDS011;2494;51.872;9.688;2024-01-10T14:18:16;28.90;;;16.20;;
4957;SDS011;2494;51.872;9.688;2024-01-10T14:21:03;38.30;;;19.93;;
4957;SDS011;2494;51.872;9.688;2024-01-10T14:23:49;35.00;;;19.07;;
4957;SDS011;2494;51.872;9.688;2024-01-10T14:26:34;31.73;;;16.80;;
4957;SDS011;2494;51.872;9.688;2024-01-10T14:29:20;36.73;;;17.40;;
4957;SDS011;2494;51.872;9.688;2024-01-10T14:32:06;30.93;;;17.43;;
4957;SDS011;2494;51.872;9.688;2024-01-10T14:34:52;32.93;;;16.90;;
4957;SDS011;2494;51.872;9.688;2024-01-10T14:37:39;34.00;;;17.20;;
4957;SDS011;2494;51.872;9.688;2024-01-10T14:40:24;33.43;;;16.00;;
4957;SDS011;2494;51.872;9.688;2024-01-10T14:43:10;32.53;;;17.23;;
4957;SDS011;2494;51.872;9.688;2024-01-10T14:45:55;40.50;;;17.90;;
4957;SDS011;2494;51.872;9.688;2024-01-10T14:48:40;27.87;;;15.77;;
4957;SDS011;2494;51.872;9.688;2024-01-10T14:51:26;27.90;;;15.80;;
4957;SDS011;2494;51.872;9.688;2024-01-10T14:54:13;32.13;;;16.40;;
4957;SDS011;2494;51.872;9.688;2024-01-10T14:56:59;30.57;;;17.37;;
4957;SDS011;2494;51.872;9.688;2024-01-10T14:59:44;39.60;;;16.87;;
4957;SDS011;2494;51.872;9.688;2024-01-10T15:02:29;28.73;;;15.17;;
4957;SDS011;2494;51.872;9.688;2024-01-10T15:05:15;30.60;;;16.87;;
4957;SDS011;2494;51.872;9.688;2024-01-10T15:08:00;30.00;;;15.90;;
4957;SDS011;2494;51.872;9.688;2024-01-10T15:10:47;32.63;;;17.53;;
4957;SDS011;2494;51.872;9.688;2024-01-10T15:13:32;26.23;;;15.23;;
4957;SDS011;2494;51.872;9.688;2024-01-10T15:16:18;35.73;;;16.80;;
4957;SDS011;2494;51.872;9.688;2024-01-10T15:19:04;33.57;;;15.40;;
4957;SDS011;2494;51.872;9.688;2024-01-10T15:21:50;38.03;;;18.13;;
4957;SDS011;2494;51.872;9.688;2024-01-10T15:24:36;43.33;;;17.67;;
4957;SDS011;2494;51.872;9.688;2024-01-10T15:27:23;29.73;;;16.93;;
4957;SDS011;2494;51.872;9.688;2024-01-10T15:30:12;87.43;;;33.73;;
4957;SDS011;2494;51.872;9.688;2024-01-10T15:32:58;68.10;;;29.47;;
4957;SDS011;2494;51.872;9.688;2024-01-10T15:35:44;124.13;;;49.20;;
4957;SDS011;2494;51.872;9.688;2024-01-10T15:38:30;37.07;;;18.23;;
4957;SDS011;2494;51.872;9.688;2024-01-10T15:41:16;28.80;;;17.20;;
4957;SDS011;2494;51.872;9.688;2024-01-10T15:44:03;40.30;;;19.93;;
4957;SDS011;2494;51.872;9.688;2024-01-10T15:46:50;41.27;;;19.37;;
4957;SDS011;2494;51.872;9.688;2024-01-10T15:49:35;48.13;;;20.13;;
4957;SDS011;2494;51.872;9.688;2024-01-10T15:52:21;34.60;;;17.40;;
4957;SDS011;2494;51.872;9.688;2024-01-10T15:55:10;38.50;;;17.90;;
4957;SDS011;2494;51.872;9.688;2024-01-10T15:57:54;38.80;;;21.03;;
4957;SDS011;2494;51.872;9.688;2024-01-10T16:00:42;34.50;;;17.73;;
4957;SDS011;2494;51.872;9.688;2024-01-10T16:03:27;41.43;;;17.97;;
4957;SDS011;2494;51.872;9.688;2024-01-10T16:06:13;33.77;;;17.20;;
4957;SDS011;2494;51.872;9.688;2024-01-10T16:09:00;37.93;;;19.53;;
4957;SDS011;2494;51.872;9.688;2024-01-10T16:11:47;32.73;;;16.97;;
4957;SDS011;2494;51.872;9.688;2024-01-10T16:14:33;35.20;;;17.23;;
4957;SDS011;2494;51.872;9.688;2024-01-10T16:17:20;37.63;;;17.87;;
4957;SDS011;2494;51.872;9.688;2024-01-10T16:20:06;36.47;;;20.77;;
4957;SDS011;2494;51.872;9.688;2024-01-10T16:22:52;38.87;;;19.00;;
4957;SDS011;2494;51.872;9.688;2024-01-10T16:25:38;36.60;;;19.23;;
4957;SDS011;2494;51.872;9.688;2024-01-10T16:28:23;38.00;;;17.77;;
4957;SDS011;2494;51.872;9.688;2024-01-10T16:31:09;24.40;;;16.17;;
4957;SDS011;2494;51.872;9.688;2024-01-10T16:33:55;34.70;;;17.57;;
4957;SDS011;2494;51.872;9.688;2024-01-10T16:36:40;40.77;;;19.20;;
4957;SDS011;2494;51.872;9.688;2024-01-10T16:39:26;36.13;;;17.33;;
4957;SDS011;2494;51.872;9.688;2024-01-10T16:42:11;67.20;;;25.13;;
4957;SDS011;2494;51.872;9.688;2024-01-10T16:44:58;55.03;;;23.23;;